sensor_id;sensor_type;location;lat;lon;timestamp;pressure;altitude;pressure_sealevel;temperature;humidity
21594;BME280;10959;51.328;7.322;2022-12-07T00:01:29;98761.78;;;5.96;89.37
21594;BME280;10959;51.328;7.322;2022-12-07T00:03:58;98762.47;;;6.04;89.24
21594;BME280;10959;51.328;7.322;2022-12-07T00:06:30;98758.84;;;6.05;89.16
21594;BME280;10959;51.328;7.322;2022-12-07T00:08:58;98754.13;;;6.14;88.43
21594;BME280;10959;51.328;7.322;2022-12-07T00:11:25;98755.78;;;6.18;88.70
21594;BME280;10959;51.328;7.322;2022-12-07T00:13:53;98758.56;;;6.15;88.50
21594;BME280;10959;51.328;7.322;2022-12-07T00:16:21;98754.13;;;6.14;88.41
21594;BME280;10959;51.328;7.322;2022-12-07T00:18:48;98754.94;;;6.17;88.59
21594;BME280;10959;51.328;7.322;2022-12-07T00:21:16;98751.34;;;6.17;88.43
21594;BME280;10959;51.328;7.322;2022-12-07T00:23:44;98755.78;;;6.18;88.37
21594;BME280;10959;51.328;7.322;2022-12-07T00:26:14;98742.41;;;6.18;87.78
21594;BME280;10959;51.328;7.322;2022-12-07T00:28:41;98743.22;;;6.20;87.75
21594;BME280;10959;51.328;7.322;2022-12-07T00:31:11;98749.31;;;6.25;88.15
21594;BME280;10959;51.328;7.322;2022-12-07T00:33:38;98743.44;;;6.14;88.32
21594;BME280;10959;51.328;7.322;2022-12-07T00:36:08;98743.53;;;6.11;88.44
21594;BME280;10959;51.328;7.322;2022-12-07T00:38:36;98741.91;;;6.07;88.49
21594;BME280;10959;51.328;7.322;2022-12-07T00:41:05;98740.81;;;6.12;88.02
21594;BME280;10959;51.328;7.322;2022-12-07T00:43:34;98745.19;;;6.15;88.37
21594;BME280;10959;51.328;7.322;2022-12-07T00:46:00;98734.28;;;6.21;88.04
21594;BME280;10959;51.328;7.322;2022-12-07T00:48:27;98736.22;;;6.16;87.91
21594;BME280;10959;51.328;7.322;2022-12-07T00:50:53;98739.84;;;6.15;88.50
21594;BME280;10959;51.328;7.322;2022-12-07T00:53:20;98739.44;;;6.00;89.33
21594;BME280;10959;51.328;7.322;2022-12-07T00:55:47;98733.88;;;6.07;88.97
21594;BME280;10959;51.328;7.322;2022-12-07T00:58:14;98737.09;;;5.88;89.83
21594;BME280;10959;51.328;7.322;2022-12-07T01:00:42;98736.13;;;5.91;89.65
21594;BME280;10959;51.328;7.322;2022-12-07T01:03:10;98738.31;;;6.08;89.34
21594;BME280;10959;51.328;7.322;2022-12-07T01:05:38;98735.88;;;6.00;89.36
21594;BME280;10959;51.328;7.322;2022-12-07T01:08:05;98729.81;;;5.93;89.92
21594;BME280;10959;51.328;7.322;2022-12-07T01:10:32;98725.84;;;6.07;89.72
21594;BME280;10959;51.328;7.322;2022-12-07T01:12:59;98717.03;;;6.04;89.73
21594;BME280;10959;51.328;7.322;2022-12-07T01:15:25;98730.75;;;5.92;89.82
21594;BME280;10959;51.328;7.322;2022-12-07T01:17:53;98725.97;;;6.03;90.07
21594;BME280;10959;51.328;7.322;2022-12-07T01:20:20;98717.88;;;6.05;89.87
21594;BME280;10959;51.328;7.322;2022-12-07T01:22:48;98720.28;;;6.13;89.47
21594;BME280;10959;51.328;7.322;2022-12-07T01:25:15;98723.19;;;6.07;89.97
21594;BME280;10959;51.328;7.322;2022-12-07T01:27:41;98722.28;;;6.08;89.80
21594;BME280;10959;51.328;7.322;2022-12-07T01:30:10;98724.09;;;6.05;89.77
21594;BME280;10959;51.328;7.322;2022-12-07T01:32:37;98736.66;;;6.03;90.05
21594;BME280;10959;51.328;7.322;2022-12-07T01:35:05;98726.78;;;6.05;89.82
21594;BME280;10959;51.328;7.322;2022-12-07T01:37:34;98724.94;;;6.08;89.77
21594;BME280;10959;51.328;7.322;2022-12-07T01:40:02;98736.53;;;6.07;89.95
21594;BME280;10959;51.328;7.322;2022-12-07T01:42:28;98723.72;;;6.18;89.92
21594;BME280;10959;51.328;7.322;2022-12-07T01:48:04;98732.16;;;6.04;89.77
21594;BME280;10959;51.328;7.322;2022-12-07T01:50:33;98727.63;;;6.08;89.95
21594;BME280;10959;51.328;7.322;2022-12-07T01:53:03;98725.75;;;6.10;89.87
21594;BME280;10959;51.328;7.322;2022-12-07T01:55:32;98723.72;;;6.18;89.93
21594;BME280;10959;51.328;7.322;2022-12-07T01:57:58;98732.53;;;6.20;89.63
21594;BME280;10959;51.328;7.322;2022-12-07T02:00:25;98725.66;;;6.13;89.78
21594;BME280;10959;51.328;7.322;2022-12-07T02:02:55;98727.63;;;6.08;89.58
21594;BME280;10959;51.328;7.322;2022-12-07T02:05:23;98722.06;;;6.14;89.81
21594;BME280;10959;51.328;7.322;2022-12-07T02:07:53;98732.38;;;5.98;90.05
21594;BME280;10959;51.328;7.322;2022-12-07T02:10:23;98720.72;;;6.00;90.36
21594;BME280;10959;51.328;7.322;2022-12-07T02:12:52;98710.03;;;6.00;90.79
21594;BME280;10959;51.328;7.322;2022-12-07T02:15:22;98710.34;;;6.18;90.43
21594;BME280;10959;51.328;7.322;2022-12-07T02:17:55;98706.81;;;6.17;90.04
21594;BME280;10959;51.328;7.322;2022-12-07T02:20:28;98711.16;;;6.20;89.69
21594;BME280;10959;51.328;7.322;2022-12-07T02:23:37;98716.53;;;5.90;89.49
21594;BME280;10959;51.328;7.322;2022-12-07T02:26:45;98713.09;;;5.86;89.66
21594;BME280;10959;51.328;7.322;2022-12-07T02:29:21;98714.72;;;5.92;90.37
21594;BME280;10959;51.328;7.322;2022-12-07T02:31:55;98706.59;;;5.95;90.49
21594;BME280;10959;51.328;7.322;2022-12-07T02:34:31;98720.88;;;5.94;90.18
21594;BME280;10959;51.328;7.322;2022-12-07T02:37:03;98720.09;;;5.91;90.46
21594;BME280;10959;51.328;7.322;2022-12-07T02:39:36;98729.66;;;5.99;90.69
21594;BME280;10959;51.328;7.322;2022-12-07T02:42:09;98716.09;;;6.05;89.99
21594;BME280;10959;51.328;7.322;2022-12-07T02:44:40;98709.03;;;6.03;90.47
21594;BME280;10959;51.328;7.322;2022-12-07T02:47:10;98709.72;;;6.10;90.28
21594;BME280;10959;51.328;7.322;2022-12-07T02:49:39;98710.22;;;6.21;89.52
21594;BME280;10959;51.328;7.322;2022-12-07T02:52:06;98714.09;;;6.12;89.99
21594;BME280;10959;51.328;7.322;2022-12-07T02:54:33;98715.38;;;6.00;90.16
21594;BME280;10959;51.328;7.322;2022-12-07T02:57:03;98706.41;;;6.01;89.71
21594;BME280;10959;51.328;7.322;2022-12-07T02:59:38;98710.03;;;6.00;89.94
21594;BME280;10959;51.328;7.322;2022-12-07T03:02:18;98715.38;;;6.00;89.65
21594;BME280;10959;51.328;7.322;2022-12-07T03:04:53;98716.25;;;6.01;89.36
21594;BME280;10959;51.328;7.322;2022-12-07T03:07:30;98717.69;;;6.11;89.09
21594;BME280;10959;51.328;7.322;2022-12-07T03:10:07;98712.44;;;6.08;89.48
21594;BME280;10959;51.328;7.322;2022-12-07T03:12:42;98717.38;;;5.92;89.29
21594;BME280;10959;51.328;7.322;2022-12-07T03:15:14;98708.06;;;6.05;89.61
21594;BME280;10959;51.328;7.322;2022-12-07T03:17:46;98716.72;;;6.14;89.24
21594;BME280;10959;51.328;7.322;2022-12-07T03:20:17;98713.13;;;6.15;89.06
21594;BME280;10959;51.328;7.322;2022-12-07T03:22:46;98715.91;;;6.12;89.06
21594;BME280;10959;51.328;7.322;2022-12-07T03:25:15;98716.50;;;6.20;88.69
21594;BME280;10959;51.328;7.322;2022-12-07T03:27:45;98716.19;;;6.02;89.15
21594;BME280;10959;51.328;7.322;2022-12-07T03:30:17;98700.50;;;5.90;89.36
21594;BME280;10959;51.328;7.322;2022-12-07T03:32:48;98710.19;;;5.94;89.41
21594;BME280;10959;51.328;7.322;2022-12-07T03:35:19;98709.81;;;6.07;89.13
21594;BME280;10959;51.328;7.322;2022-12-07T03:37:50;98702.81;;;6.02;89.00
21594;BME280;10959;51.328;7.322;2022-12-07T03:40:23;98702.81;;;6.02;88.77
21594;BME280;10959;51.328;7.322;2022-12-07T03:42:53;98707.66;;;6.18;88.72
21594;BME280;10959;51.328;7.322;2022-12-07T03:45:23;98711.75;;;6.01;88.61
21594;BME280;10959;51.328;7.322;2022-12-07T03:48:00;98715.63;;;5.91;88.37
21594;BME280;10959;51.328;7.322;2022-12-07T03:50:31;98708.34;;;5.96;88.52
21594;BME280;10959;51.328;7.322;2022-12-07T03:53:02;98708.91;;;6.08;88.21
21594;BME280;10959;51.328;7.322;2022-12-07T03:55:32;98716.16;;;5.74;88.61
21594;BME280;10959;51.328;7.322;2022-12-07T03:58:02;98719.22;;;5.90;88.88
21594;BME280;10959;51.328;7.322;2022-12-07T04:00:30;98722.72;;;5.92;88.54
21594;BME280;10959;51.328;7.322;2022-12-07T04:02:58;98717.59;;;5.86;88.31
21594;BME280;10959;51.328;7.322;2022-12-07T04:05:24;98719.53;;;5.81;88.42
21594;BME280;10959;51.328;7.322;2022-12-07T04:07:51;98715.66;;;5.61;88.96
21594;BME280;10959;51.328;7.322;2022-12-07T04:10:18;98712.53;;;5.77;89.08
21594;BME280;10959;51.328;7.322;2022-12-07T04:12:44;98718.41;;;5.88;88.77
21594;BME280;10959;51.328;7.322;2022-12-07T04:15:11;98713.16;;;5.85;88.55
21594;BME280;10959;51.328;7.322;2022-12-07T04:17:38;98715.94;;;5.82;88.39
21594;BME280;10959;51.328;7.322;2022-12-07T04:20:07;98717.88;;;5.77;88.19
21594;BME280;10959;51.328;7.322;2022-12-07T04:22:34;98713.53;;;5.72;88.71
21594;BME280;10959;51.328;7.322;2022-12-07T04:25:00;98716.03;;;5.79;88.55
21594;BME280;10959;51.328;7.322;2022-12-07T04:27:27;98714.94;;;5.84;88.32
21594;BME280;10959;51.328;7.322;2022-12-07T04:29:53;98717.00;;;5.76;88.06
21594;BME280;10959;51.328;7.322;2022-12-07T04:32:20;98710.59;;;5.82;88.49
21594;BME280;10959;51.328;7.322;2022-12-07T04:34:47;98708.69;;;5.85;88.10
21594;BME280;10959;51.328;7.322;2022-12-07T04:37:15;98703.19;;;5.90;87.97
21594;BME280;10959;51.328;7.322;2022-12-07T04:39:42;98701.56;;;5.86;87.93
21594;BME280;10959;51.328;7.322;2022-12-07T04:42:10;98703.28;;;5.87;88.50
21594;BME280;10959;51.328;7.322;2022-12-07T04:44:38;98695.84;;;5.97;87.84
21594;BME280;10959;51.328;7.322;2022-12-07T04:47:05;98695.66;;;6.04;87.50
21594;BME280;10959;51.328;7.322;2022-12-07T04:49:31;98700.03;;;6.05;87.25
21594;BME280;10959;51.328;7.322;2022-12-07T04:51:58;98697.38;;;6.05;87.04
21594;BME280;10959;51.328;7.322;2022-12-07T04:54:26;98698.22;;;6.08;86.67
21594;BME280;10959;51.328;7.322;2022-12-07T04:56:52;98700.81;;;6.09;86.80
21594;BME280;10959;51.328;7.322;2022-12-07T04:59:18;98707.19;;;6.05;86.75
21594;BME280;10959;51.328;7.322;2022-12-07T05:01:45;98701.16;;;5.98;86.67
21594;BME280;10959;51.328;7.322;2022-12-07T05:04:12;98709.53;;;5.87;87.08
21594;BME280;10959;51.328;7.322;2022-12-07T05:06:38;98703.50;;;5.81;87.62
21594;BME280;10959;51.328;7.322;2022-12-07T05:09:05;98702.53;;;5.83;87.75
21594;BME280;10959;51.328;7.322;2022-12-07T05:11:33;98707.38;;;5.70;87.89
21594;BME280;10959;51.328;7.322;2022-12-07T05:14:08;98708.28;;;5.69;88.23
21594;BME280;10959;51.328;7.322;2022-12-07T05:16:34;98702.69;;;5.79;88.12
21594;BME280;10959;51.328;7.322;2022-12-07T05:19:02;98704.06;;;5.91;87.55
21594;BME280;10959;51.328;7.322;2022-12-07T05:21:28;98703.00;;;5.96;87.52
21594;BME280;10959;51.328;7.322;2022-12-07T05:23:55;98693.28;;;5.94;87.37
21594;BME280;10959;51.328;7.322;2022-12-07T05:26:21;98695.13;;;5.92;87.72
21594;BME280;10959;51.328;7.322;2022-12-07T05:28:51;98698.84;;;5.87;87.23
21594;BME280;10959;51.328;7.322;2022-12-07T05:31:18;98697.19;;;5.83;87.38
21594;BME280;10959;51.328;7.322;2022-12-07T05:33:45;98699.84;;;5.83;87.62
21594;BME280;10959;51.328;7.322;2022-12-07T05:36:11;98697.03;;;5.88;87.27
21594;BME280;10959;51.328;7.322;2022-12-07T05:38:38;98707.81;;;5.85;87.40
21594;BME280;10959;51.328;7.322;2022-12-07T05:41:05;98699.91;;;5.82;87.31
21594;BME280;10959;51.328;7.322;2022-12-07T05:43:32;98698.34;;;5.75;87.80
21594;BME280;10959;51.328;7.322;2022-12-07T05:45:59;98703.50;;;5.81;87.51
21594;BME280;10959;51.328;7.322;2022-12-07T05:48:26;98690.94;;;5.83;87.62
21594;BME280;10959;51.328;7.322;2022-12-07T05:50:52;98692.91;;;5.78;87.54
21594;BME280;10959;51.328;7.322;2022-12-07T05:53:19;98693.38;;;5.91;87.18
21594;BME280;10959;51.328;7.322;2022-12-07T05:55:45;98693.50;;;5.87;87.39
21594;BME280;10959;51.328;7.322;2022-12-07T05:58:12;98689.09;;;5.85;86.86
21594;BME280;10959;51.328;7.322;2022-12-07T06:00:56;98693.53;;;5.86;87.16
21594;BME280;10959;51.328;7.322;2022-12-07T06:03:23;98693.63;;;5.83;87.37
21594;BME280;10959;51.328;7.322;2022-12-07T06:05:51;98696.28;;;5.83;87.14
21594;BME280;10959;51.328;7.322;2022-12-07T06:08:19;98691.72;;;5.86;87.12
21594;BME280;10959;51.328;7.322;2022-12-07T06:10:46;98693.66;;;5.81;87.24
21594;BME280;10959;51.328;7.322;2022-12-07T06:13:33;98683.75;;;5.85;87.09
21594;BME280;10959;51.328;7.322;2022-12-07T06:15:58;98688.78;;;5.94;86.98
21594;BME280;10959;51.328;7.322;2022-12-07T06:18:26;98685.97;;;6.00;86.48
21594;BME280;10959;51.328;7.322;2022-12-07T06:20:52;98685.03;;;6.01;86.46
21594;BME280;10959;51.328;7.322;2022-12-07T06:23:19;98687.69;;;6.01;86.03
21594;BME280;10959;51.328;7.322;2022-12-07T06:25:45;98688.66;;;6.00;85.97
21594;BME280;10959;51.328;7.322;2022-12-07T06:28:12;98692.31;;;5.96;86.13
21594;BME280;10959;51.328;7.322;2022-12-07T06:30:38;98688.84;;;5.93;86.34
21594;BME280;10959;51.328;7.322;2022-12-07T06:33:05;98698.03;;;5.84;86.01
21594;BME280;10959;51.328;7.322;2022-12-07T06:35:33;98700.00;;;5.79;86.03
21594;BME280;10959;51.328;7.322;2022-12-07T06:37:59;98697.44;;;5.74;86.73
21594;BME280;10959;51.328;7.322;2022-12-07T06:40:26;98704.66;;;5.72;86.92
21594;BME280;10959;51.328;7.322;2022-12-07T06:42:52;98700.19;;;5.72;86.93
21594;BME280;10959;51.328;7.322;2022-12-07T06:45:19;98707.13;;;5.78;86.63
21594;BME280;10959;51.328;7.322;2022-12-07T06:47:46;98711.50;;;5.81;86.52
21594;BME280;10959;51.328;7.322;2022-12-07T06:50:13;98703.28;;;5.87;86.16
21594;BME280;10959;51.328;7.322;2022-12-07T06:52:40;98711.94;;;5.95;85.98
21594;BME280;10959;51.328;7.322;2022-12-07T06:55:07;98712.13;;;5.89;85.97
21594;BME280;10959;51.328;7.322;2022-12-07T06:57:33;98711.06;;;5.95;85.90
21594;BME280;10959;51.328;7.322;2022-12-07T07:00:00;98706.41;;;6.01;85.74
21594;BME280;10959;51.328;7.322;2022-12-07T07:02:26;98705.72;;;5.95;85.57
21594;BME280;10959;51.328;7.322;2022-12-07T07:04:53;98705.91;;;5.88;85.67
21594;BME280;10959;51.328;7.322;2022-12-07T07:07:19;98711.25;;;5.88;85.64
21594;BME280;10959;51.328;7.322;2022-12-07T07:09:47;98704.94;;;5.91;85.71
21594;BME280;10959;51.328;7.322;2022-12-07T07:12:13;98695.81;;;5.98;85.88
21594;BME280;10959;51.328;7.322;2022-12-07T07:14:40;98704.81;;;5.94;85.04
21594;BME280;10959;51.328;7.322;2022-12-07T07:17:07;98714.94;;;5.84;85.18
21594;BME280;10959;51.328;7.322;2022-12-07T07:19:33;98715.94;;;5.82;85.60
21594;BME280;10959;51.328;7.322;2022-12-07T07:21:59;98723.00;;;5.83;85.56
21594;BME280;10959;51.328;7.322;2022-12-07T07:24:26;98717.75;;;5.80;85.74
21594;BME280;10959;51.328;7.322;2022-12-07T07:26:53;98724.75;;;5.84;85.26
21594;BME280;10959;51.328;7.322;2022-12-07T07:29:20;98715.94;;;5.82;85.28
21594;BME280;10959;51.328;7.322;2022-12-07T07:31:47;98718.59;;;5.82;85.35
21594;BME280;10959;51.328;7.322;2022-12-07T07:34:13;98717.91;;;5.75;85.48
21594;BME280;10959;51.328;7.322;2022-12-07T07:36:40;98714.28;;;5.78;85.29
21594;BME280;10959;51.328;7.322;2022-12-07T07:39:06;98724.13;;;5.76;85.63
21594;BME280;10959;51.328;7.322;2022-12-07T07:41:33;98714.38;;;5.75;85.28
21594;BME280;10959;51.328;7.322;2022-12-07T07:44:01;98719.03;;;5.68;85.46
21594;BME280;10959;51.328;7.322;2022-12-07T07:46:27;98723.31;;;5.74;85.29
21594;BME280;10959;51.328;7.322;2022-12-07T07:48:54;98714.28;;;5.78;85.44
21594;BME280;10959;51.328;7.322;2022-12-07T07:51:20;98715.13;;;5.78;85.20
21594;BME280;10959;51.328;7.322;2022-12-07T07:53:46;98719.72;;;5.75;85.01
21594;BME280;10959;51.328;7.322;2022-12-07T07:56:13;98719.72;;;5.75;85.13
21594;BME280;10959;51.328;7.322;2022-12-07T07:58:39;98717.28;;;5.67;84.86
21594;BME280;10959;51.328;7.322;2022-12-07T08:01:07;98725.34;;;5.65;84.73
21594;BME280;10959;51.328;7.322;2022-12-07T08:03:35;98719.72;;;5.75;85.13
21594;BME280;10959;51.328;7.322;2022-12-07T08:06:01;98720.63;;;5.74;84.75
21594;BME280;10959;51.328;7.322;2022-12-07T08:08:28;98720.69;;;5.72;84.69
21594;BME280;10959;51.328;7.322;2022-12-07T08:10:54;98727.00;;;5.69;84.92
21594;BME280;10959;51.328;7.322;2022-12-07T08:13:25;98728.56;;;5.77;84.79
21594;BME280;10959;51.328;7.322;2022-12-07T08:15:52;98728.44;;;5.80;84.84
21594;BME280;10959;51.328;7.322;2022-12-07T08:18:19;98733.78;;;5.80;84.54
21594;BME280;10959;51.328;7.322;2022-12-07T08:20:46;98735.81;;;5.71;84.65
21594;BME280;10959;51.328;7.322;2022-12-07T08:23:12;98738.38;;;5.76;84.79
21594;BME280;10959;51.328;7.322;2022-12-07T08:25:39;98727.44;;;5.84;84.88
21594;BME280;10959;51.328;7.322;2022-12-07T08:28:06;98731.75;;;5.88;84.35
21594;BME280;10959;51.328;7.322;2022-12-07T08:30:33;98737.44;;;5.77;84.58
21594;BME280;10959;51.328;7.322;2022-12-07T08:32:59;98740.09;;;5.77;85.02
21594;BME280;10959;51.328;7.322;2022-12-07T08:35:27;98732.13;;;5.76;85.39
21594;BME280;10959;51.328;7.322;2022-12-07T08:37:53;98741.81;;;5.80;85.51
21594;BME280;10959;51.328;7.322;2022-12-07T08:40:22;98733.69;;;5.83;85.52
21594;BME280;10959;51.328;7.322;2022-12-07T08:42:49;98739.34;;;5.74;85.28
21594;BME280;10959;51.328;7.322;2022-12-07T08:45:17;98732.44;;;5.66;85.73
21594;BME280;10959;51.328;7.322;2022-12-07T08:47:47;98739.44;;;5.70;85.75
21594;BME280;10959;51.328;7.322;2022-12-07T08:50:16;98739.34;;;5.74;85.85
21594;BME280;10959;51.328;7.322;2022-12-07T08:52:48;98739.94;;;5.53;85.66
21594;BME280;10959;51.328;7.322;2022-12-07T08:55:16;98738.44;;;5.75;86.02
21594;BME280;10959;51.328;7.322;2022-12-07T08:57:43;98730.41;;;5.75;86.16
21594;BME280;10959;51.328;7.322;2022-12-07T09:00:11;98730.91;;;5.87;85.57
21594;BME280;10959;51.328;7.322;2022-12-07T09:02:39;98731.06;;;5.81;85.58
21594;BME280;10959;51.328;7.322;2022-12-07T09:05:06;98726.75;;;5.77;85.65
21594;BME280;10959;51.328;7.322;2022-12-07T09:07:33;98734.59;;;5.83;85.77
21594;BME280;10959;51.328;7.322;2022-12-07T09:10:02;98740.78;;;5.84;85.15
21594;BME280;10959;51.328;7.322;2022-12-07T09:12:28;98739.25;;;5.77;86.01
21594;BME280;10959;51.328;7.322;2022-12-07T09:14:55;98734.47;;;5.86;85.71
21594;BME280;10959;51.328;7.322;2022-12-07T09:17:21;98731.75;;;5.88;85.81
21594;BME280;10959;51.328;7.322;2022-12-07T09:19:48;98730.63;;;5.95;85.73
21594;BME280;10959;51.328;7.322;2022-12-07T09:22:14;98733.41;;;5.92;85.05
21594;BME280;10959;51.328;7.322;2022-12-07T09:24:40;98739.44;;;6.00;85.61
21594;BME280;10959;51.328;7.322;2022-12-07T09:27:09;98741.28;;;5.97;85.32
21594;BME280;10959;51.328;7.322;2022-12-07T09:29:36;98739.22;;;6.07;85.72
21594;BME280;10959;51.328;7.322;2022-12-07T09:32:03;98741.78;;;6.10;85.47
21594;BME280;10959;51.328;7.322;2022-12-07T09:34:30;98740.13;;;6.05;85.40
21594;BME280;10959;51.328;7.322;2022-12-07T09:36:57;98740.03;;;6.09;85.68
21594;BME280;10959;51.328;7.322;2022-12-07T09:39:23;98746.16;;;6.12;85.35
21594;BME280;10959;51.328;7.322;2022-12-07T09:41:49;98747.44;;;6.00;85.59
21594;BME280;10959;51.328;7.322;2022-12-07T09:44:24;98749.34;;;5.95;85.49
21594;BME280;10959;51.328;7.322;2022-12-07T09:46:51;98738.78;;;6.20;85.51
21594;BME280;10959;51.328;7.322;2022-12-07T09:49:19;98736.16;;;6.19;85.06
21594;BME280;10959;51.328;7.322;2022-12-07T09:51:47;98730.88;;;6.16;85.01
21594;BME280;10959;51.328;7.322;2022-12-07T09:54:15;98732.53;;;6.20;85.30
21594;BME280;10959;51.328;7.322;2022-12-07T09:56:43;98732.63;;;6.17;85.54
21594;BME280;10959;51.328;7.322;2022-12-07T09:59:16;98729.06;;;6.18;85.06
21594;BME280;10959;51.328;7.322;2022-12-07T10:01:47;98735.94;;;6.25;84.91
21594;BME280;10959;51.328;7.322;2022-12-07T10:04:15;98738.84;;;6.19;84.56
21594;BME280;10959;51.328;7.322;2022-12-07T10:06:42;98732.47;;;6.23;85.20
21594;BME280;10959;51.328;7.322;2022-12-07T10:09:11;98726.78;;;6.32;84.40
21594;BME280;10959;51.328;7.322;2022-12-07T10:12:00;98725.25;;;6.25;84.52
21594;BME280;10959;51.328;7.322;2022-12-07T10:14:28;98728.22;;;6.43;83.68
21594;BME280;10959;51.328;7.322;2022-12-07T10:16:57;98719.69;;;6.31;83.39
21594;BME280;10959;51.328;7.322;2022-12-07T10:19:25;98721.22;;;6.38;84.26
21594;BME280;10959;51.328;7.322;2022-12-07T10:22:10;98721.72;;;6.25;83.98
21594;BME280;10959;51.328;7.322;2022-12-07T10:24:37;98719.38;;;6.40;83.73
21594;BME280;10959;51.328;7.322;2022-12-07T10:27:17;98712.91;;;6.21;83.27
21594;BME280;10959;51.328;7.322;2022-12-07T10:29:47;98719.38;;;6.40;83.55
21594;BME280;10959;51.328;7.322;2022-12-07T10:32:29;98713.25;;;6.37;83.74
21594;BME280;10959;51.328;7.322;2022-12-07T10:35:18;98713.06;;;6.43;84.01
21594;BME280;10959;51.328;7.322;2022-12-07T10:37:45;98708.38;;;6.75;83.88
21594;BME280;10959;51.328;7.322;2022-12-07T10:40:25;98693.06;;;6.79;83.27
21594;BME280;10959;51.328;7.322;2022-12-07T10:43:01;98691.84;;;6.89;82.87
21594;BME280;10959;51.328;7.322;2022-12-07T10:45:28;98690.69;;;6.96;82.55
21594;BME280;10959;51.328;7.322;2022-12-07T10:48:02;98687.53;;;7.08;82.43
21594;BME280;10959;51.328;7.322;2022-12-07T10:50:47;98683.81;;;6.89;81.29
21594;BME280;10959;51.328;7.322;2022-12-07T10:53:27;98675.44;;;7.22;81.10
21594;BME280;10959;51.328;7.322;2022-12-07T10:56:09;98676.47;;;7.18;80.84
21594;BME280;10959;51.328;7.322;2022-12-07T10:58:50;98670.75;;;7.27;81.19
21594;BME280;10959;51.328;7.322;2022-12-07T11:01:24;98666.44;;;7.23;80.31
21594;BME280;10959;51.328;7.322;2022-12-07T11:04:13;98676.00;;;7.06;80.62
21594;BME280;10959;51.328;7.322;2022-12-07T11:06:48;98668.09;;;7.27;81.16
21594;BME280;10959;51.328;7.322;2022-12-07T11:12:24;98671.13;;;7.18;80.90
21594;BME280;10959;51.328;7.322;2022-12-07T11:14:56;98666.13;;;7.32;81.42
21594;BME280;10959;51.328;7.322;2022-12-07T11:17:30;98674.25;;;7.05;80.27
21594;BME280;10959;51.328;7.322;2022-12-07T11:20:14;98664.03;;;6.93;81.03
21594;BME280;10959;51.328;7.322;2022-12-07T11:22:52;98660.88;;;7.05;80.53
21594;BME280;10959;51.328;7.322;2022-12-07T11:25:31;98659.59;;;7.16;80.88
21594;BME280;10959;51.328;7.322;2022-12-07T11:28:12;98663.22;;;7.15;80.88
21594;BME280;10959;51.328;7.322;2022-12-07T11:30:47;98656.56;;;7.25;80.60
21594;BME280;10959;51.328;7.322;2022-12-07T11:33:22;98645.03;;;7.23;80.90
21594;BME280;10959;51.328;7.322;2022-12-07T11:36:02;98647.31;;;7.10;80.07
21594;BME280;10959;51.328;7.322;2022-12-07T11:38:40;98638.81;;;7.22;80.75
21594;BME280;10959;51.328;7.322;2022-12-07T11:41:09;98635.34;;;7.42;80.66
21594;BME280;10959;51.328;7.322;2022-12-07T11:44:05;98645.28;;;7.17;79.96
21594;BME280;10959;51.328;7.322;2022-12-07T11:46:43;98642.72;;;7.14;79.93
21594;BME280;10959;51.328;7.322;2022-12-07T11:49:15;98636.44;;;7.15;80.55
21594;BME280;10959;51.328;7.322;2022-12-07T11:51:49;98638.28;;;7.13;80.32
21594;BME280;10959;51.328;7.322;2022-12-07T11:54:23;98629.09;;;6.96;80.00
21594;BME280;10959;51.328;7.322;2022-12-07T11:56:54;98630.50;;;7.06;80.45
21594;BME280;10959;51.328;7.322;2022-12-07T11:59:25;98627.69;;;7.09;80.25
21594;BME280;10959;51.328;7.322;2022-12-07T12:01:56;98637.81;;;7.01;80.34
21594;BME280;10959;51.328;7.322;2022-12-07T12:04:32;98639.22;;;6.88;80.65
21594;BME280;10959;51.328;7.322;2022-12-07T12:07:06;98634.47;;;6.96;80.57
21594;BME280;10959;51.328;7.322;2022-12-07T12:09:35;98641.34;;;7.03;80.60
21594;BME280;10959;51.328;7.322;2022-12-07T12:15:30;98639.91;;;6.69;81.68
21594;BME280;10959;51.328;7.322;2022-12-07T12:18:19;98634.56;;;6.69;81.88
21594;BME280;10959;51.328;7.322;2022-12-07T12:20:55;98628.41;;;6.91;81.70
21594;BME280;10959;51.328;7.322;2022-12-07T12:23:30;98644.81;;;6.82;81.57
21594;BME280;10959;51.328;7.322;2022-12-07T12:26:02;98625.66;;;6.92;82.03
21594;BME280;10959;51.328;7.322;2022-12-07T12:28:35;98626.56;;;6.93;81.45
21594;BME280;10959;51.328;7.322;2022-12-07T12:31:07;98624.56;;;6.98;81.36
21594;BME280;10959;51.328;7.322;2022-12-07T12:33:35;98622.22;;;7.13;81.38
21594;BME280;10959;51.328;7.322;2022-12-07T12:36:22;98614.56;;;7.03;81.61
21594;BME280;10959;51.328;7.322;2022-12-07T12:39:07;98611.03;;;7.25;81.33
21594;BME280;10959;51.328;7.322;2022-12-07T12:41:59;98603.03;;;7.01;81.21
21594;BME280;10959;51.328;7.322;2022-12-07T12:47:43;98602.91;;;7.04;81.08
21594;BME280;10959;51.328;7.322;2022-12-07T12:50:20;98601.38;;;7.21;80.88
21594;BME280;10959;51.328;7.322;2022-12-07T12:52:57;98600.28;;;7.03;80.16
21594;BME280;10959;51.328;7.322;2022-12-07T12:58:42;98609.75;;;6.64;80.84
21594;BME280;10959;51.328;7.322;2022-12-07T13:01:43;98600.81;;;6.65;81.14
21594;BME280;10959;51.328;7.322;2022-12-07T13:04:34;98600.25;;;6.81;81.08
21594;BME280;10959;51.328;7.322;2022-12-07T13:07:03;98591.31;;;7.04;81.17
21594;BME280;10959;51.328;7.322;2022-12-07T13:09:32;98591.69;;;6.95;80.91
21594;BME280;10959;51.328;7.322;2022-12-07T13:12:03;98586.75;;;7.07;81.01
21594;BME280;10959;51.328;7.322;2022-12-07T13:14:52;98589.28;;;6.87;80.76
21594;BME280;10959;51.328;7.322;2022-12-07T13:20:43;98590.69;;;6.97;81.33
21594;BME280;10959;51.328;7.322;2022-12-07T13:23:10;98581.41;;;7.30;81.45
21594;BME280;10959;51.328;7.322;2022-12-07T13:25:44;98584.97;;;7.06;80.13
21594;BME280;10959;51.328;7.322;2022-12-07T13:28:15;98581.00;;;7.17;80.36
21594;BME280;10959;51.328;7.322;2022-12-07T13:30:50;98583.75;;;7.15;79.99
21594;BME280;10959;51.328;7.322;2022-12-07T13:33:20;98578.91;;;7.25;80.03
21594;BME280;10959;51.328;7.322;2022-12-07T13:35:46;98575.03;;;7.32;80.57
21594;BME280;10959;51.328;7.322;2022-12-07T13:38:23;98571.91;;;7.21;80.29
21594;BME280;10959;51.328;7.322;2022-12-07T13:41:02;98573.91;;;7.16;79.78
21594;BME280;10959;51.328;7.322;2022-12-07T13:43:29;98565.88;;;7.16;80.03
21594;BME280;10959;51.328;7.322;2022-12-07T13:45:58;98557.72;;;7.19;80.21